createdAt,value
2023-03-23T15:59:46.889Z,5.30
2023-03-23T16:02:26.003Z,4.90
2023-03-23T16:05:00.121Z,4.40
2023-03-23T16:07:30.365Z,8.00
2023-03-23T16:09:59.422Z,8.20
2023-03-23T16:12:28.535Z,5.30
2023-03-23T16:14:57.309Z,4.00
2023-03-23T16:17:26.919Z,3.80
2023-03-23T16:19:56.177Z,4.40
2023-03-23T16:22:25.027Z,6.80
2023-03-23T16:24:54.203Z,14.20
2023-03-23T16:27:23.089Z,22.80
2023-03-23T16:30:02.796Z,15.90
2023-03-23T16:35:02.244Z,8.20
2023-03-23T16:37:33.227Z,6.70
2023-03-23T16:40:03.275Z,7.50
2023-03-23T16:42:32.181Z,4.10
2023-03-23T16:45:00.878Z,3.90
2023-03-23T16:47:29.719Z,5.40
2023-03-23T16:49:58.889Z,8.50
2023-03-23T16:52:28.613Z,27.80
2023-03-23T16:54:57.348Z,66.40
2023-03-23T16:57:26.498Z,69.30
2023-03-23T16:59:57.739Z,58.00
2023-03-23T17:02:26.952Z,41.10
2023-03-23T17:04:56.236Z,49.40
2023-03-23T17:07:25.544Z,32.90
2023-03-23T17:09:54.811Z,30.30
2023-03-23T17:12:23.707Z,30.20
2023-03-23T17:14:52.495Z,23.80
2023-03-23T17:17:22.798Z,24.30
2023-03-23T17:19:52.149Z,23.30
2023-03-23T17:22:21.337Z,33.00
2023-03-23T17:24:50.452Z,37.40
2023-03-23T17:27:22.367Z,35.40
2023-03-23T17:29:51.079Z,30.50
2023-03-23T17:32:21.108Z,41.80
2023-03-23T17:34:50.203Z,33.30
2023-03-23T17:37:19.280Z,32.90
2023-03-23T17:39:49.036Z,25.80
2023-03-23T17:42:18.010Z,24.10
2023-03-23T17:44:47.005Z,19.60
2023-03-23T17:47:16.447Z,22.00
2023-03-23T17:49:46.175Z,24.80
2023-03-23T17:52:15.509Z,19.90
2023-03-23T17:54:44.627Z,15.80
2023-03-23T17:57:13.431Z,13.60
2023-03-23T17:59:44.354Z,11.50
2023-03-23T18:02:14.076Z,9.10
2023-03-23T18:04:42.960Z,12.80
2023-03-23T18:07:12.245Z,11.30
2023-03-23T18:09:41.595Z,11.30
2023-03-23T18:12:11.749Z,8.90
2023-03-23T18:14:40.772Z,8.40
2023-03-23T18:17:09.960Z,8.00
2023-03-23T18:19:39.219Z,8.40
2023-03-23T18:22:08.357Z,8.30
2023-03-23T18:24:37.020Z,7.10
2023-03-23T18:27:05.831Z,6.80
2023-03-23T18:29:34.439Z,7.90
2023-03-23T18:32:03.461Z,9.60
2023-03-23T18:34:32.130Z,9.10
2023-03-23T18:37:01.252Z,32.50
2023-03-23T18:39:33.298Z,20.30
2023-03-23T18:42:02.831Z,24.20
2023-03-23T18:44:31.841Z,44.30
2023-03-23T18:47:01.270Z,23.80
2023-03-23T18:49:32.826Z,34.90
2023-03-23T18:52:01.782Z,54.90
2023-03-23T18:54:34.247Z,52.80
2023-03-23T18:57:03.442Z,48.20
2023-03-23T18:59:34.062Z,75.60
2023-03-23T19:02:03.017Z,90.90
2023-03-23T19:04:32.482Z,41.40
2023-03-23T19:07:02.795Z,40.80
2023-03-23T19:09:34.024Z,58.80
2023-03-23T19:12:03.640Z,51.20
2023-03-23T19:14:33.461Z,61.50
2023-03-23T19:17:02.741Z,84.60
2023-03-23T19:19:31.506Z,85.40
2023-03-23T19:22:01.439Z,67.10
2023-03-23T19:24:30.080Z,45.80
2023-03-23T19:26:59.763Z,43.90
2023-03-23T19:29:29.516Z,55.50
2023-03-23T19:31:58.962Z,79.50
2023-03-23T19:34:29.044Z,68.80
2023-03-23T19:37:05.254Z,65.60
2023-03-23T19:39:36.128Z,48.30
2023-03-23T19:42:05.581Z,49.80
2023-03-23T19:44:35.968Z,45.10
2023-03-23T19:47:04.771Z,40.00
2023-03-23T19:49:33.471Z,33.70
2023-03-23T19:52:07.912Z,27.40
2023-03-23T19:54:39.672Z,26.90
2023-03-23T19:57:09.794Z,23.80
2023-03-23T19:59:39.250Z,20.40
2023-03-23T20:02:11.766Z,19.20
2023-03-23T20:04:41.041Z,16.20
2023-03-23T20:07:10.591Z,20.40
2023-03-23T20:09:40.263Z,21.40
2023-03-23T20:12:09.816Z,13.30
2023-03-23T20:14:43.796Z,10.20
2023-03-23T20:17:13.998Z,10.20
2023-03-23T20:19:43.021Z,12.40
2023-03-23T20:22:13.708Z,8.50
2023-03-23T20:24:44.586Z,8.00
2023-03-23T20:27:15.026Z,6.80
2023-03-23T20:29:47.404Z,6.20
2023-03-23T20:32:16.154Z,8.20
2023-03-23T20:34:48.996Z,7.00
2023-03-23T20:37:20.186Z,10.60
2023-03-23T20:39:49.305Z,7.70
2023-03-23T20:42:18.618Z,7.10
2023-03-23T20:44:47.398Z,6.50
2023-03-23T20:47:16.135Z,9.40
2023-03-23T20:49:52.992Z,9.60
2023-03-23T20:52:25.409Z,10.00
2023-03-23T20:54:54.328Z,8.30
2023-03-23T20:57:25.037Z,8.00
2023-03-23T20:59:55.182Z,7.00
2023-03-23T21:02:25.225Z,6.00
2023-03-23T21:04:54.460Z,5.80
2023-03-23T21:07:26.869Z,5.90
2023-03-23T21:09:55.580Z,5.40
2023-03-23T21:12:24.373Z,5.40
2023-03-23T21:14:53.053Z,11.30
2023-03-23T21:17:21.742Z,20.10
2023-03-23T21:19:50.880Z,17.40
2023-03-23T21:22:19.602Z,16.40
2023-03-23T21:24:49.811Z,10.50
2023-03-23T21:27:18.500Z,8.30
2023-03-23T21:29:48.204Z,6.50
2023-03-23T21:32:16.865Z,6.00
2023-03-23T21:34:46.900Z,5.70
2023-03-23T21:37:15.461Z,5.20
2023-03-23T21:39:44.268Z,5.30
2023-03-23T21:42:13.470Z,5.80
2023-03-23T21:44:43.765Z,5.90
2023-03-23T21:47:12.466Z,5.80
2023-03-23T21:49:41.436Z,6.00
2023-03-23T21:52:10.140Z,5.60
2023-03-23T21:54:40.560Z,5.30
2023-03-23T21:57:09.243Z,7.20
2023-03-23T21:59:37.865Z,5.70
2023-03-23T22:02:08.219Z,4.90
2023-03-23T22:04:37.056Z,5.10
2023-03-23T22:07:06.804Z,4.70
2023-03-23T22:09:36.932Z,4.20
2023-03-23T22:12:23.550Z,4.20
2023-03-23T22:14:52.503Z,4.30
2023-03-23T22:17:21.303Z,4.00
2023-03-23T22:19:50.190Z,4.10
2023-03-23T22:22:19.401Z,3.60
2023-03-23T22:24:48.258Z,3.90
2023-03-23T22:27:17.699Z,4.30
2023-03-23T22:29:46.525Z,3.30
2023-03-23T22:32:15.780Z,3.10
2023-03-23T22:34:46.590Z,3.20
2023-03-23T22:37:18.121Z,2.80
2023-03-23T22:39:46.987Z,3.40
2023-03-23T22:42:15.743Z,2.80
2023-03-23T22:44:44.732Z,2.90
2023-03-23T22:47:13.482Z,3.00
2023-03-23T22:49:42.369Z,2.90
2023-03-23T22:52:11.376Z,2.90
2023-03-23T22:54:40.455Z,2.80
2023-03-23T22:57:09.508Z,2.90
2023-03-23T22:59:38.418Z,2.40
2023-03-23T23:02:07.365Z,3.40
2023-03-23T23:04:36.426Z,3.30
2023-03-23T23:07:12.836Z,3.20
2023-03-23T23:09:42.825Z,3.10
2023-03-23T23:12:13.801Z,4.80
2023-03-23T23:14:44.890Z,4.70
2023-03-23T23:17:13.691Z,3.20
2023-03-23T23:19:42.869Z,3.80
2023-03-23T23:22:18.967Z,3.40
2023-03-23T23:24:48.649Z,2.80
2023-03-23T23:27:22.478Z,3.40
2023-03-23T23:29:51.395Z,3.40
2023-03-23T23:32:20.243Z,3.20
2023-03-23T23:34:49.126Z,3.30
2023-03-23T23:37:17.961Z,3.20
2023-03-23T23:39:47.232Z,3.50
2023-03-23T23:42:16.038Z,4.00
2023-03-23T23:44:45.834Z,3.60
2023-03-23T23:47:14.809Z,3.50
2023-03-23T23:49:43.727Z,4.20
2023-03-23T23:52:12.543Z,3.80
2023-03-23T23:54:41.860Z,3.50
2023-03-23T23:57:10.801Z,3.60
2023-03-23T23:59:40.132Z,4.20
